sensor_id;sensor_type;location;lat;lon;timestamp;P1;durP1;ratioP1;P2;durP2;ratioP2
68718;SDS011;55696;52.138;5.444;2023-05-07T00:01:01;7.25;;;4.95;;
68718;SDS011;55696;52.138;5.444;2023-05-07T00:03:28;11.43;;;6.25;;
68718;SDS011;55696;52.138;5.444;2023-05-07T00:05:55;8.47;;;5.60;;
68718;SDS011;55696;52.138;5.444;2023-05-07T00:08:22;10.55;;;6.20;;
68718;SDS011;55696;52.138;5.444;2023-05-07T00:10:49;11.63;;;5.95;;
68718;SDS011;55696;52.138;5.444;2023-05-07T00:13:16;7.80;;;5.78;;
68718;SDS011;55696;52.138;5.444;2023-05-07T00:15:42;10.13;;;5.93;;
68718;SDS011;55696;52.138;5.444;2023-05-07T00:18:09;8.73;;;6.40;;
68718;SDS011;55696;52.138;5.444;2023-05-07T00:20:36;7.43;;;5.85;;
68718;SDS011;55696;52.138;5.444;2023-05-07T00:23:03;9.43;;;6.93;;
68718;SDS011;55696;52.138;5.444;2023-05-07T00:25:29;10.98;;;6.05;;
68718;SDS011;55696;52.138;5.444;2023-05-07T00:27:56;12.70;;;7.25;;
68718;SDS011;55696;52.138;5.444;2023-05-07T00:30:29;10.87;;;6.97;;
68718;SDS011;55696;52.138;5.444;2023-05-07T00:32:55;10.35;;;6.18;;
68718;SDS011;55696;52.138;5.444;2023-05-07T00:35:22;12.57;;;7.40;;
68718;SDS011;55696;52.138;5.444;2023-05-07T00:37:49;9.75;;;6.95;;
68718;SDS011;55696;52.138;5.444;2023-05-07T00:40:16;9.55;;;6.07;;
68718;SDS011;55696;52.138;5.444;2023-05-07T00:42:43;10.83;;;6.90;;
68718;SDS011;55696;52.138;5.444;2023-05-07T00:45:13;9.40;;;6.93;;
68718;SDS011;55696;52.138;5.444;2023-05-07T00:47:41;12.13;;;7.00;;
68718;SDS011;55696;52.138;5.444;2023-05-07T00:50:09;11.18;;;6.95;;
68718;SDS011;55696;52.138;5.444;2023-05-07T00:52:37;8.77;;;6.30;;
68718;SDS011;55696;52.138;5.444;2023-05-07T00:55:05;11.30;;;6.70;;
68718;SDS011;55696;52.138;5.444;2023-05-07T00:57:35;11.43;;;6.90;;
68718;SDS011;55696;52.138;5.444;2023-05-07T01:00:04;10.65;;;5.97;;
68718;SDS011;55696;52.138;5.444;2023-05-07T01:02:31;10.10;;;6.07;;
68718;SDS011;55696;52.138;5.444;2023-05-07T01:04:58;7.32;;;6.10;;
68718;SDS011;55696;52.138;5.444;2023-05-07T01:07:27;9.97;;;6.63;;
68718;SDS011;55696;52.138;5.444;2023-05-07T01:09:56;12.20;;;7.20;;
68718;SDS011;55696;52.138;5.444;2023-05-07T01:12:23;9.95;;;7.10;;
68718;SDS011;55696;52.138;5.444;2023-05-07T01:14:51;9.65;;;6.47;;
68718;SDS011;55696;52.138;5.444;2023-05-07T01:17:18;10.20;;;6.65;;
68718;SDS011;55696;52.138;5.444;2023-05-07T01:19:46;11.37;;;6.90;;
68718;SDS011;55696;52.138;5.444;2023-05-07T01:22:14;11.68;;;7.15;;
68718;SDS011;55696;52.138;5.444;2023-05-07T01:24:49;13.82;;;6.90;;
68718;SDS011;55696;52.138;5.444;2023-05-07T01:27:16;11.57;;;6.95;;
68718;SDS011;55696;52.138;5.444;2023-05-07T01:29:43;11.02;;;7.15;;
68718;SDS011;55696;52.138;5.444;2023-05-07T01:32:09;12.77;;;7.80;;
68718;SDS011;55696;52.138;5.444;2023-05-07T01:34:38;8.55;;;5.82;;
68718;SDS011;55696;52.138;5.444;2023-05-07T01:37:06;9.00;;;6.90;;
68718;SDS011;55696;52.138;5.444;2023-05-07T01:39:33;9.13;;;6.43;;
68718;SDS011;55696;52.138;5.444;2023-05-07T01:42:02;9.02;;;6.63;;
68718;SDS011;55696;52.138;5.444;2023-05-07T01:44:29;8.17;;;6.17;;
68718;SDS011;55696;52.138;5.444;2023-05-07T01:46:56;12.10;;;7.03;;
68718;SDS011;55696;52.138;5.444;2023-05-07T01:49:24;14.93;;;7.03;;
68718;SDS011;55696;52.138;5.444;2023-05-07T01:51:51;11.90;;;6.93;;
68718;SDS011;55696;52.138;5.444;2023-05-07T01:54:18;11.25;;;6.90;;
68718;SDS011;55696;52.138;5.444;2023-05-07T01:56:47;11.13;;;7.07;;
68718;SDS011;55696;52.138;5.444;2023-05-07T01:59:15;8.57;;;7.10;;
68718;SDS011;55696;52.138;5.444;2023-05-07T02:01:41;11.27;;;6.85;;
68718;SDS011;55696;52.138;5.444;2023-05-07T02:04:09;12.30;;;7.10;;
68718;SDS011;55696;52.138;5.444;2023-05-07T02:06:36;9.30;;;7.05;;
68718;SDS011;55696;52.138;5.444;2023-05-07T02:09:05;9.57;;;7.17;;
68718;SDS011;55696;52.138;5.444;2023-05-07T02:11:31;9.77;;;7.35;;
68718;SDS011;55696;52.138;5.444;2023-05-07T02:13:58;10.13;;;7.35;;
68718;SDS011;55696;52.138;5.444;2023-05-07T02:16:25;7.68;;;5.65;;
68718;SDS011;55696;52.138;5.444;2023-05-07T02:18:52;11.38;;;6.53;;
68718;SDS011;55696;52.138;5.444;2023-05-07T02:21:19;9.07;;;6.00;;
68718;SDS011;55696;52.138;5.444;2023-05-07T02:23:46;12.90;;;7.50;;
68718;SDS011;55696;52.138;5.444;2023-05-07T02:26:12;11.10;;;6.75;;
68718;SDS011;55696;52.138;5.444;2023-05-07T02:28:39;14.50;;;7.18;;
68718;SDS011;55696;52.138;5.444;2023-05-07T02:31:06;8.43;;;5.78;;
68718;SDS011;55696;52.138;5.444;2023-05-07T02:33:33;11.73;;;6.73;;
68718;SDS011;55696;52.138;5.444;2023-05-07T02:36:09;10.25;;;6.78;;
68718;SDS011;55696;52.138;5.444;2023-05-07T02:38:43;12.02;;;6.18;;
68718;SDS011;55696;52.138;5.444;2023-05-07T02:41:10;13.02;;;7.25;;
68718;SDS011;55696;52.138;5.444;2023-05-07T02:43:37;12.93;;;7.53;;
68718;SDS011;55696;52.138;5.444;2023-05-07T02:46:04;13.73;;;7.47;;
68718;SDS011;55696;52.138;5.444;2023-05-07T02:48:35;11.75;;;8.15;;
68718;SDS011;55696;52.138;5.444;2023-05-07T02:51:02;13.68;;;7.90;;
68718;SDS011;55696;52.138;5.444;2023-05-07T02:53:30;10.98;;;6.47;;
68718;SDS011;55696;52.138;5.444;2023-05-07T02:55:58;12.82;;;7.43;;
68718;SDS011;55696;52.138;5.444;2023-05-07T02:58:26;11.77;;;8.10;;
68718;SDS011;55696;52.138;5.444;2023-05-07T03:00:53;10.40;;;7.88;;
68718;SDS011;55696;52.138;5.444;2023-05-07T03:03:34;10.05;;;6.97;;
68718;SDS011;55696;52.138;5.444;2023-05-07T03:06:02;14.13;;;7.22;;
68718;SDS011;55696;52.138;5.444;2023-05-07T03:08:29;12.20;;;7.20;;
68718;SDS011;55696;52.138;5.444;2023-05-07T03:10:56;11.43;;;7.40;;
68718;SDS011;55696;52.138;5.444;2023-05-07T03:13:23;14.35;;;9.10;;
68718;SDS011;55696;52.138;5.444;2023-05-07T03:15:50;12.85;;;8.63;;
68718;SDS011;55696;52.138;5.444;2023-05-07T03:18:17;18.88;;;8.40;;
68718;SDS011;55696;52.138;5.444;2023-05-07T03:20:44;10.40;;;7.78;;
68718;SDS011;55696;52.138;5.444;2023-05-07T03:23:11;12.33;;;8.30;;
68718;SDS011;55696;52.138;5.444;2023-05-07T03:25:38;14.43;;;8.70;;
68718;SDS011;55696;52.138;5.444;2023-05-07T03:28:04;12.85;;;9.18;;
68718;SDS011;55696;52.138;5.444;2023-05-07T03:30:40;11.23;;;8.20;;
68718;SDS011;55696;52.138;5.444;2023-05-07T03:33:07;12.30;;;9.45;;
68718;SDS011;55696;52.138;5.444;2023-05-07T03:35:34;11.20;;;9.10;;
68718;SDS011;55696;52.138;5.444;2023-05-07T03:38:01;12.40;;;8.60;;
68718;SDS011;55696;52.138;5.444;2023-05-07T03:40:31;12.40;;;9.57;;
68718;SDS011;55696;52.138;5.444;2023-05-07T03:42:59;11.75;;;9.13;;
68718;SDS011;55696;52.138;5.444;2023-05-07T03:45:28;12.30;;;8.90;;
68718;SDS011;55696;52.138;5.444;2023-05-07T03:48:07;12.37;;;9.23;;
68718;SDS011;55696;52.138;5.444;2023-05-07T03:50:34;14.13;;;8.68;;
68718;SDS011;55696;52.138;5.444;2023-05-07T03:53:01;13.32;;;9.55;;
68718;SDS011;55696;52.138;5.444;2023-05-07T03:55:29;13.55;;;9.63;;
68718;SDS011;55696;52.138;5.444;2023-05-07T03:57:59;12.70;;;10.05;;
68718;SDS011;55696;52.138;5.444;2023-05-07T04:00:27;14.57;;;9.40;;
68718;SDS011;55696;52.138;5.444;2023-05-07T04:02:58;12.77;;;8.52;;
68718;SDS011;55696;52.138;5.444;2023-05-07T04:05:29;12.13;;;8.70;;
68718;SDS011;55696;52.138;5.444;2023-05-07T04:08:00;12.95;;;8.52;;
68718;SDS011;55696;52.138;5.444;2023-05-07T04:10:35;14.23;;;9.05;;
68718;SDS011;55696;52.138;5.444;2023-05-07T04:13:07;14.97;;;8.97;;
68718;SDS011;55696;52.138;5.444;2023-05-07T04:15:35;12.40;;;9.00;;
68718;SDS011;55696;52.138;5.444;2023-05-07T04:18:05;14.90;;;9.50;;
68718;SDS011;55696;52.138;5.444;2023-05-07T04:20:33;14.75;;;9.60;;
68718;SDS011;55696;52.138;5.444;2023-05-07T04:23:04;14.52;;;10.23;;
68718;SDS011;55696;52.138;5.444;2023-05-07T04:25:31;13.27;;;9.33;;
68718;SDS011;55696;52.138;5.444;2023-05-07T04:28:08;17.65;;;9.65;;
68718;SDS011;55696;52.138;5.444;2023-05-07T04:30:36;13.88;;;10.05;;
68718;SDS011;55696;52.138;5.444;2023-05-07T04:33:05;12.20;;;9.07;;
68718;SDS011;55696;52.138;5.444;2023-05-07T04:35:33;14.38;;;10.20;;
68718;SDS011;55696;52.138;5.444;2023-05-07T04:38:03;18.03;;;10.97;;
68718;SDS011;55696;52.138;5.444;2023-05-07T04:40:30;15.02;;;10.32;;
68718;SDS011;55696;52.138;5.444;2023-05-07T04:42:58;14.13;;;9.07;;
68718;SDS011;55696;52.138;5.444;2023-05-07T04:45:24;15.88;;;10.02;;
68718;SDS011;55696;52.138;5.444;2023-05-07T04:47:53;12.82;;;9.40;;
68718;SDS011;55696;52.138;5.444;2023-05-07T04:50:20;14.87;;;9.60;;
68718;SDS011;55696;52.138;5.444;2023-05-07T04:52:51;15.77;;;10.20;;
68718;SDS011;55696;52.138;5.444;2023-05-07T04:55:19;17.88;;;10.40;;
68718;SDS011;55696;52.138;5.444;2023-05-07T04:57:46;14.27;;;9.98;;
68718;SDS011;55696;52.138;5.444;2023-05-07T05:00:14;14.55;;;10.93;;
68718;SDS011;55696;52.138;5.444;2023-05-07T05:02:43;15.23;;;10.20;;
68718;SDS011;55696;52.138;5.444;2023-05-07T05:05:14;14.55;;;9.35;;
68718;SDS011;55696;52.138;5.444;2023-05-07T05:07:41;14.70;;;8.85;;
68718;SDS011;55696;52.138;5.444;2023-05-07T05:10:08;18.08;;;10.68;;
68718;SDS011;55696;52.138;5.444;2023-05-07T05:12:38;14.00;;;9.55;;
68718;SDS011;55696;52.138;5.444;2023-05-07T05:15:05;13.13;;;9.40;;
68718;SDS011;55696;52.138;5.444;2023-05-07T05:17:33;12.23;;;9.00;;
68718;SDS011;55696;52.138;5.444;2023-05-07T05:20:03;15.02;;;9.82;;
68718;SDS011;55696;52.138;5.444;2023-05-07T05:22:32;14.40;;;10.15;;
68718;SDS011;55696;52.138;5.444;2023-05-07T05:25:00;15.35;;;10.88;;
68718;SDS011;55696;52.138;5.444;2023-05-07T05:27:27;15.60;;;10.40;;
68718;SDS011;55696;52.138;5.444;2023-05-07T05:29:55;19.30;;;11.02;;
68718;SDS011;55696;52.138;5.444;2023-05-07T05:32:21;15.23;;;10.02;;
68718;SDS011;55696;52.138;5.444;2023-05-07T05:34:52;13.85;;;9.60;;
68718;SDS011;55696;52.138;5.444;2023-05-07T05:37:18;14.23;;;9.82;;
68718;SDS011;55696;52.138;5.444;2023-05-07T05:39:45;14.60;;;10.03;;
68718;SDS011;55696;52.138;5.444;2023-05-07T05:42:12;13.77;;;9.73;;
68718;SDS011;55696;52.138;5.444;2023-05-07T05:44:39;14.77;;;10.15;;
68718;SDS011;55696;52.138;5.444;2023-05-07T05:47:06;16.00;;;10.80;;
68718;SDS011;55696;52.138;5.444;2023-05-07T05:49:33;17.95;;;11.40;;
68718;SDS011;55696;52.138;5.444;2023-05-07T05:52:02;15.97;;;10.50;;
68718;SDS011;55696;52.138;5.444;2023-05-07T05:54:29;16.60;;;10.68;;
68718;SDS011;55696;52.138;5.444;2023-05-07T05:56:56;19.42;;;12.27;;
68718;SDS011;55696;52.138;5.444;2023-05-07T05:59:24;15.25;;;10.73;;
68718;SDS011;55696;52.138;5.444;2023-05-07T06:01:52;16.83;;;11.48;;
68718;SDS011;55696;52.138;5.444;2023-05-07T06:04:19;18.70;;;12.97;;
68718;SDS011;55696;52.138;5.444;2023-05-07T06:06:46;18.67;;;11.90;;
68718;SDS011;55696;52.138;5.444;2023-05-07T06:09:13;18.80;;;12.07;;
68718;SDS011;55696;52.138;5.444;2023-05-07T06:11:42;18.55;;;12.75;;
68718;SDS011;55696;52.138;5.444;2023-05-07T06:14:10;14.98;;;11.40;;
68718;SDS011;55696;52.138;5.444;2023-05-07T06:16:37;17.00;;;12.03;;
68718;SDS011;55696;52.138;5.444;2023-05-07T06:19:06;15.88;;;11.02;;
68718;SDS011;55696;52.138;5.444;2023-05-07T06:21:33;18.83;;;12.85;;
68718;SDS011;55696;52.138;5.444;2023-05-07T06:23:59;19.10;;;12.55;;
68718;SDS011;55696;52.138;5.444;2023-05-07T06:26:26;19.77;;;13.50;;
68718;SDS011;55696;52.138;5.444;2023-05-07T06:28:53;18.47;;;12.93;;
68718;SDS011;55696;52.138;5.444;2023-05-07T06:31:20;16.77;;;11.77;;
68718;SDS011;55696;52.138;5.444;2023-05-07T06:33:53;17.40;;;12.90;;
68718;SDS011;55696;52.138;5.444;2023-05-07T06:36:24;15.90;;;10.70;;
68718;SDS011;55696;52.138;5.444;2023-05-07T06:38:54;19.27;;;10.90;;
68718;SDS011;55696;52.138;5.444;2023-05-07T06:41:21;17.93;;;12.53;;
68718;SDS011;55696;52.138;5.444;2023-05-07T06:43:48;16.58;;;12.30;;
68718;SDS011;55696;52.138;5.444;2023-05-07T06:46:50;19.52;;;11.77;;
68718;SDS011;55696;52.138;5.444;2023-05-07T06:49:17;17.77;;;12.93;;
68718;SDS011;55696;52.138;5.444;2023-05-07T06:51:44;19.38;;;11.88;;
68718;SDS011;55696;52.138;5.444;2023-05-07T06:54:11;21.67;;;13.00;;
68718;SDS011;55696;52.138;5.444;2023-05-07T06:56:39;18.23;;;12.63;;
68718;SDS011;55696;52.138;5.444;2023-05-07T06:59:06;17.70;;;11.43;;
68718;SDS011;55696;52.138;5.444;2023-05-07T07:01:37;16.15;;;11.15;;
68718;SDS011;55696;52.138;5.444;2023-05-07T07:04:06;17.02;;;10.77;;
68718;SDS011;55696;52.138;5.444;2023-05-07T07:06:34;16.90;;;11.87;;
68718;SDS011;55696;52.138;5.444;2023-05-07T07:09:03;17.50;;;12.57;;
68718;SDS011;55696;52.138;5.444;2023-05-07T07:11:31;18.27;;;12.55;;
68718;SDS011;55696;52.138;5.444;2023-05-07T07:13:57;14.77;;;10.85;;
68718;SDS011;55696;52.138;5.444;2023-05-07T07:16:25;18.98;;;12.60;;
68718;SDS011;55696;52.138;5.444;2023-05-07T07:18:52;17.53;;;12.30;;
68718;SDS011;55696;52.138;5.444;2023-05-07T07:21:19;15.02;;;11.55;;
68718;SDS011;55696;52.138;5.444;2023-05-07T07:23:46;16.08;;;11.75;;
68718;SDS011;55696;52.138;5.444;2023-05-07T07:26:13;18.75;;;13.02;;
68718;SDS011;55696;52.138;5.444;2023-05-07T07:28:43;18.67;;;11.45;;
68718;SDS011;55696;52.138;5.444;2023-05-07T07:31:16;15.23;;;11.77;;
68718;SDS011;55696;52.138;5.444;2023-05-07T07:33:43;15.65;;;12.38;;
68718;SDS011;55696;52.138;5.444;2023-05-07T07:36:10;20.35;;;12.48;;
68718;SDS011;55696;52.138;5.444;2023-05-07T07:38:38;18.25;;;13.25;;
68718;SDS011;55696;52.138;5.444;2023-05-07T07:41:05;18.50;;;13.00;;
68718;SDS011;55696;52.138;5.444;2023-05-07T07:43:34;17.23;;;12.27;;
68718;SDS011;55696;52.138;5.444;2023-05-07T07:46:02;18.45;;;12.23;;
68718;SDS011;55696;52.138;5.444;2023-05-07T07:48:30;17.25;;;13.00;;
68718;SDS011;55696;52.138;5.444;2023-05-07T07:50:57;17.15;;;11.75;;
68718;SDS011;55696;52.138;5.444;2023-05-07T07:53:24;16.42;;;12.50;;
68718;SDS011;55696;52.138;5.444;2023-05-07T07:55:51;17.30;;;12.40;;
68718;SDS011;55696;52.138;5.444;2023-05-07T07:58:26;16.33;;;12.00;;
68718;SDS011;55696;52.138;5.444;2023-05-07T08:00:53;17.55;;;12.43;;
68718;SDS011;55696;52.138;5.444;2023-05-07T08:03:22;16.00;;;11.85;;
68718;SDS011;55696;52.138;5.444;2023-05-07T08:05:53;17.48;;;13.18;;
68718;SDS011;55696;52.138;5.444;2023-05-07T08:08:20;16.97;;;13.27;;
68718;SDS011;55696;52.138;5.444;2023-05-07T08:10:48;16.30;;;12.80;;
68718;SDS011;55696;52.138;5.444;2023-05-07T08:13:24;16.05;;;12.70;;
68718;SDS011;55696;52.138;5.444;2023-05-07T08:15:51;18.08;;;13.07;;
68718;SDS011;55696;52.138;5.444;2023-05-07T08:18:18;17.77;;;13.32;;
68718;SDS011;55696;52.138;5.444;2023-05-07T08:20:45;18.73;;;14.13;;
68718;SDS011;55696;52.138;5.444;2023-05-07T08:23:17;18.95;;;12.95;;
68718;SDS011;55696;52.138;5.444;2023-05-07T08:25:44;17.75;;;12.68;;
68718;SDS011;55696;52.138;5.444;2023-05-07T08:28:12;17.48;;;12.75;;
68718;SDS011;55696;52.138;5.444;2023-05-07T08:30:39;17.42;;;12.55;;
68718;SDS011;55696;52.138;5.444;2023-05-07T08:33:08;18.30;;;13.70;;
68718;SDS011;55696;52.138;5.444;2023-05-07T08:35:35;16.17;;;12.40;;
68718;SDS011;55696;52.138;5.444;2023-05-07T08:38:03;18.38;;;13.18;;
68718;SDS011;55696;52.138;5.444;2023-05-07T08:40:32;18.98;;;13.77;;
68718;SDS011;55696;52.138;5.444;2023-05-07T08:43:07;23.50;;;15.52;;
68718;SDS011;55696;52.138;5.444;2023-05-07T08:45:36;21.30;;;17.13;;
68718;SDS011;55696;52.138;5.444;2023-05-07T08:48:09;19.23;;;13.93;;
68718;SDS011;55696;52.138;5.444;2023-05-07T08:50:43;21.60;;;16.17;;
68718;SDS011;55696;52.138;5.444;2023-05-07T08:53:10;21.20;;;13.40;;
68718;SDS011;55696;52.138;5.444;2023-05-07T08:55:38;21.10;;;15.25;;
68718;SDS011;55696;52.138;5.444;2023-05-07T08:58:06;18.57;;;13.67;;
68718;SDS011;55696;52.138;5.444;2023-05-07T09:00:36;19.75;;;13.80;;
68718;SDS011;55696;52.138;5.444;2023-05-07T09:03:06;17.77;;;13.82;;
68718;SDS011;55696;52.138;5.444;2023-05-07T09:05:35;18.58;;;14.48;;
68718;SDS011;55696;52.138;5.444;2023-05-07T09:08:05;17.30;;;13.23;;
68718;SDS011;55696;52.138;5.444;2023-05-07T09:10:33;21.57;;;15.07;;
68718;SDS011;55696;52.138;5.444;2023-05-07T09:13:02;22.20;;;15.40;;
68718;SDS011;55696;52.138;5.444;2023-05-07T09:15:30;19.10;;;14.27;;
68718;SDS011;55696;52.138;5.444;2023-05-07T09:18:01;20.83;;;16.08;;
68718;SDS011;55696;52.138;5.444;2023-05-07T09:20:32;21.13;;;15.05;;
68718;SDS011;55696;52.138;5.444;2023-05-07T09:23:00;19.53;;;14.93;;
68718;SDS011;55696;52.138;5.444;2023-05-07T09:25:28;22.77;;;15.95;;
68718;SDS011;55696;52.138;5.444;2023-05-07T09:27:59;21.40;;;14.73;;
68718;SDS011;55696;52.138;5.444;2023-05-07T09:30:30;19.73;;;14.35;;
68718;SDS011;55696;52.138;5.444;2023-05-07T09:32:59;20.73;;;13.93;;
68718;SDS011;55696;52.138;5.444;2023-05-07T09:35:27;21.10;;;15.53;;
68718;SDS011;55696;52.138;5.444;2023-05-07T09:38:00;21.20;;;15.02;;
68718;SDS011;55696;52.138;5.444;2023-05-07T09:40:31;18.42;;;14.00;;
68718;SDS011;55696;52.138;5.444;2023-05-07T09:43:13;19.50;;;14.43;;
68718;SDS011;55696;52.138;5.444;2023-05-07T09:45:52;19.08;;;13.25;;
68718;SDS011;55696;52.138;5.444;2023-05-07T09:48:23;22.03;;;13.53;;
68718;SDS011;55696;52.138;5.444;2023-05-07T09:50:55;17.38;;;12.98;;
68718;SDS011;55696;52.138;5.444;2023-05-07T09:53:28;19.38;;;13.07;;
68718;SDS011;55696;52.138;5.444;2023-05-07T09:55:58;18.35;;;12.93;;
68718;SDS011;55696;52.138;5.444;2023-05-07T09:58:26;18.33;;;13.57;;
68718;SDS011;55696;52.138;5.444;2023-05-07T10:00:53;19.73;;;13.90;;
68718;SDS011;55696;52.138;5.444;2023-05-07T10:03:22;19.70;;;13.90;;
68718;SDS011;55696;52.138;5.444;2023-05-07T10:05:59;18.55;;;13.23;;
68718;SDS011;55696;52.138;5.444;2023-05-07T10:08:27;22.23;;;13.35;;
68718;SDS011;55696;52.138;5.444;2023-05-07T10:10:57;22.80;;;13.68;;
68718;SDS011;55696;52.138;5.444;2023-05-07T10:13:26;19.87;;;14.70;;
68718;SDS011;55696;52.138;5.444;2023-05-07T10:15:56;16.70;;;12.43;;
68718;SDS011;55696;52.138;5.444;2023-05-07T10:18:27;14.82;;;11.27;;
68718;SDS011;55696;52.138;5.444;2023-05-07T10:21:07;22.52;;;13.00;;
68718;SDS011;55696;52.138;5.444;2023-05-07T10:23:37;21.30;;;13.75;;
68718;SDS011;55696;52.138;5.444;2023-05-07T10:26:06;18.30;;;12.33;;
68718;SDS011;55696;52.138;5.444;2023-05-07T10:28:38;17.35;;;12.95;;
68718;SDS011;55696;52.138;5.444;2023-05-07T10:33:57;20.60;;;13.52;;
68718;SDS011;55696;52.138;5.444;2023-05-07T10:36:25;18.75;;;13.48;;
68718;SDS011;55696;52.138;5.444;2023-05-07T10:38:54;20.03;;;14.20;;
68718;SDS011;55696;52.138;5.444;2023-05-07T10:41:21;17.60;;;12.40;;
68718;SDS011;55696;52.138;5.444;2023-05-07T10:43:49;20.58;;;13.82;;
68718;SDS011;55696;52.138;5.444;2023-05-07T10:46:28;17.65;;;13.10;;
68718;SDS011;55696;52.138;5.444;2023-05-07T10:51:37;19.20;;;12.20;;
68718;SDS011;55696;52.138;5.444;2023-05-07T10:56:50;14.10;;;10.98;;
68718;SDS011;55696;52.138;5.444;2023-05-07T11:02:04;16.30;;;12.27;;
68718;SDS011;55696;52.138;5.444;2023-05-07T11:04:40;17.80;;;12.83;;
68718;SDS011;55696;52.138;5.444;2023-05-07T11:15:12;18.67;;;12.95;;
68718;SDS011;55696;52.138;5.444;2023-05-07T11:17:53;20.97;;;15.17;;
68718;SDS011;55696;52.138;5.444;2023-05-07T11:26:30;20.13;;;13.23;;
68718;SDS011;55696;52.138;5.444;2023-05-07T11:29:11;20.25;;;13.93;;
68718;SDS011;55696;52.138;5.444;2023-05-07T11:31:41;19.30;;;14.23;;
68718;SDS011;55696;52.138;5.444;2023-05-07T11:34:08;19.50;;;14.45;;
68718;SDS011;55696;52.138;5.444;2023-05-07T11:36:39;18.35;;;13.85;;
68718;SDS011;55696;52.138;5.444;2023-05-07T11:39:25;17.83;;;13.40;;
68718;SDS011;55696;52.138;5.444;2023-05-07T11:41:53;22.42;;;16.10;;
68718;SDS011;55696;52.138;5.444;2023-05-07T11:44:19;19.53;;;15.00;;
68718;SDS011;55696;52.138;5.444;2023-05-07T11:46:46;21.27;;;15.43;;
68718;SDS011;55696;52.138;5.444;2023-05-07T11:49:14;19.80;;;14.52;;
68718;SDS011;55696;52.138;5.444;2023-05-07T11:51:42;19.77;;;15.35;;
68718;SDS011;55696;52.138;5.444;2023-05-07T11:54:09;22.65;;;15.57;;
68718;SDS011;55696;52.138;5.444;2023-05-07T11:56:37;17.87;;;13.63;;
68718;SDS011;55696;52.138;5.444;2023-05-07T11:59:05;20.80;;;14.90;;
68718;SDS011;55696;52.138;5.444;2023-05-07T12:01:34;20.75;;;14.43;;
68718;SDS011;55696;52.138;5.444;2023-05-07T12:04:02;20.45;;;13.18;;
68718;SDS011;55696;52.138;5.444;2023-05-07T12:06:30;19.38;;;13.88;;
68718;SDS011;55696;52.138;5.444;2023-05-07T12:08:57;18.17;;;13.33;;
68718;SDS011;55696;52.138;5.444;2023-05-07T12:11:24;21.30;;;15.55;;
68718;SDS011;55696;52.138;5.444;2023-05-07T12:13:53;21.90;;;14.18;;
68718;SDS011;55696;52.138;5.444;2023-05-07T12:16:24;19.73;;;14.48;;
68718;SDS011;55696;52.138;5.444;2023-05-07T12:18:52;19.48;;;15.10;;
68718;SDS011;55696;52.138;5.444;2023-05-07T12:21:21;19.63;;;14.83;;
68718;SDS011;55696;52.138;5.444;2023-05-07T12:23:49;22.08;;;14.63;;
68718;SDS011;55696;52.138;5.444;2023-05-07T12:26:16;19.25;;;14.60;;
68718;SDS011;55696;52.138;5.444;2023-05-07T12:28:42;20.42;;;14.07;;
68718;SDS011;55696;52.138;5.444;2023-05-07T12:31:09;15.50;;;12.90;;
68718;SDS011;55696;52.138;5.444;2023-05-07T12:33:36;18.10;;;13.17;;
68718;SDS011;55696;52.138;5.444;2023-05-07T12:36:04;20.13;;;14.63;;
68718;SDS011;55696;52.138;5.444;2023-05-07T12:38:36;17.13;;;12.45;;
68718;SDS011;55696;52.138;5.444;2023-05-07T12:41:05;17.80;;;13.38;;
68718;SDS011;55696;52.138;5.444;2023-05-07T12:43:33;16.45;;;11.32;;
68718;SDS011;55696;52.138;5.444;2023-05-07T12:46:01;17.03;;;12.87;;
68718;SDS011;55696;52.138;5.444;2023-05-07T12:48:30;14.32;;;11.60;;
68718;SDS011;55696;52.138;5.444;2023-05-07T12:50:59;15.57;;;10.32;;
68718;SDS011;55696;52.138;5.444;2023-05-07T12:53:27;13.52;;;9.65;;
68718;SDS011;55696;52.138;5.444;2023-05-07T12:55:55;17.95;;;9.88;;
68718;SDS011;55696;52.138;5.444;2023-05-07T12:58:27;12.98;;;9.55;;
68718;SDS011;55696;52.138;5.444;2023-05-07T13:00:59;13.15;;;9.88;;
68718;SDS011;55696;52.138;5.444;2023-05-07T13:03:30;12.75;;;8.98;;
68718;SDS011;55696;52.138;5.444;2023-05-07T13:05:59;15.10;;;10.40;;
68718;SDS011;55696;52.138;5.444;2023-05-07T13:08:34;16.10;;;10.95;;
68718;SDS011;55696;52.138;5.444;2023-05-07T13:11:07;16.07;;;11.20;;
68718;SDS011;55696;52.138;5.444;2023-05-07T13:13:35;14.57;;;9.75;;
68718;SDS011;55696;52.138;5.444;2023-05-07T13:16:03;15.70;;;10.40;;
68718;SDS011;55696;52.138;5.444;2023-05-07T13:18:32;12.60;;;9.32;;
68718;SDS011;55696;52.138;5.444;2023-05-07T13:21:00;13.43;;;9.95;;
68718;SDS011;55696;52.138;5.444;2023-05-07T13:23:27;18.75;;;10.82;;
68718;SDS011;55696;52.138;5.444;2023-05-07T13:25:54;14.95;;;10.90;;
68718;SDS011;55696;52.138;5.444;2023-05-07T13:28:25;13.98;;;10.25;;
68718;SDS011;55696;52.138;5.444;2023-05-07T13:30:52;15.10;;;11.07;;
68718;SDS011;55696;52.138;5.444;2023-05-07T13:33:20;21.63;;;11.95;;
68718;SDS011;55696;52.138;5.444;2023-05-07T13:35:47;14.63;;;11.10;;
68718;SDS011;55696;52.138;5.444;2023-05-07T13:38:14;18.58;;;10.52;;
68718;SDS011;55696;52.138;5.444;2023-05-07T13:40:42;13.77;;;10.07;;
68718;SDS011;55696;52.138;5.444;2023-05-07T13:43:08;14.45;;;10.43;;
68718;SDS011;55696;52.138;5.444;2023-05-07T13:45:36;13.75;;;9.63;;
68718;SDS011;55696;52.138;5.444;2023-05-07T13:48:03;16.67;;;11.95;;
68718;SDS011;55696;52.138;5.444;2023-05-07T13:50:31;15.88;;;11.02;;
68718;SDS011;55696;52.138;5.444;2023-05-07T13:52:57;15.35;;;11.60;;
68718;SDS011;55696;52.138;5.444;2023-05-07T13:55:24;14.55;;;11.40;;
68718;SDS011;55696;52.138;5.444;2023-05-07T13:57:55;16.63;;;11.82;;
68718;SDS011;55696;52.138;5.444;2023-05-07T14:00:24;15.15;;;11.25;;
68718;SDS011;55696;52.138;5.444;2023-05-07T14:02:51;16.27;;;10.35;;
68718;SDS011;55696;52.138;5.444;2023-05-07T14:05:18;17.02;;;11.80;;
68718;SDS011;55696;52.138;5.444;2023-05-07T14:07:45;14.63;;;10.10;;
68718;SDS011;55696;52.138;5.444;2023-05-07T14:10:14;15.10;;;10.60;;
68718;SDS011;55696;52.138;5.444;2023-05-07T14:12:41;19.53;;;10.43;;
68718;SDS011;55696;52.138;5.444;2023-05-07T14:15:10;18.83;;;12.00;;
68718;SDS011;55696;52.138;5.444;2023-05-07T14:17:37;16.50;;;11.07;;
68718;SDS011;55696;52.138;5.444;2023-05-07T14:20:04;14.93;;;10.95;;
68718;SDS011;55696;52.138;5.444;2023-05-07T14:22:34;17.00;;;11.52;;
68718;SDS011;55696;52.138;5.444;2023-05-07T14:25:01;17.23;;;12.00;;
68718;SDS011;55696;52.138;5.444;2023-05-07T14:27:32;15.80;;;12.18;;
68718;SDS011;55696;52.138;5.444;2023-05-07T14:29:59;16.20;;;11.43;;
68718;SDS011;55696;52.138;5.444;2023-05-07T14:32:26;17.08;;;11.57;;
68718;SDS011;55696;52.138;5.444;2023-05-07T14:34:52;17.23;;;12.15;;
68718;SDS011;55696;52.138;5.444;2023-05-07T14:37:19;14.37;;;10.43;;
68718;SDS011;55696;52.138;5.444;2023-05-07T14:39:46;18.02;;;10.30;;
68718;SDS011;55696;52.138;5.444;2023-05-07T14:42:16;14.10;;;10.20;;
68718;SDS011;55696;52.138;5.444;2023-05-07T14:44:44;14.82;;;9.45;;
68718;SDS011;55696;52.138;5.444;2023-05-07T14:47:12;13.60;;;8.95;;
68718;SDS011;55696;52.138;5.444;2023-05-07T14:49:39;13.80;;;8.87;;
68718;SDS011;55696;52.138;5.444;2023-05-07T14:52:07;12.70;;;8.38;;
68718;SDS011;55696;52.138;5.444;2023-05-07T14:54:36;16.67;;;10.00;;
68718;SDS011;55696;52.138;5.444;2023-05-07T14:57:04;12.32;;;9.65;;
68718;SDS011;55696;52.138;5.444;2023-05-07T14:59:32;12.38;;;8.93;;
68718;SDS011;55696;52.138;5.444;2023-05-07T15:01:59;13.82;;;9.27;;